createdAt,value
2022-08-31T00:02:50.939Z,46.69
2022-08-31T00:07:50.093Z,47.49
2022-08-31T00:12:52.634Z,47.38
2022-08-31T00:17:57.498Z,47.13
2022-08-31T00:22:56.965Z,47.85
2022-08-31T00:27:57.545Z,48.38
2022-08-31T00:32:57.086Z,49.19
2022-08-31T00:37:57.724Z,49.53
2022-08-31T00:42:58.145Z,49.73
2022-08-31T00:47:57.568Z,50.72
2022-08-31T00:53:00.879Z,50.89
2022-08-31T00:58:03.522Z,50.20
2022-08-31T01:03:04.632Z,50.64
2022-08-31T01:08:04.788Z,49.45
2022-08-31T01:13:05.673Z,49.48
2022-08-31T01:18:07.837Z,49.69
2022-08-31T01:23:12.654Z,49.12
2022-08-31T01:28:12.915Z,48.43
2022-08-31T01:33:13.380Z,48.31
2022-08-31T01:38:14.377Z,48.80
2022-08-31T01:43:13.462Z,49.13
2022-08-31T01:48:16.851Z,49.44
2022-08-31T01:53:17.314Z,49.37
2022-08-31T01:58:16.702Z,49.76
2022-08-31T02:03:48.371Z,50.11
2022-08-31T02:08:48.911Z,50.46
2022-08-31T02:13:48.414Z,50.90
2022-08-31T02:18:47.434Z,50.66
2022-08-31T02:23:46.814Z,51.11
2022-08-31T02:28:47.439Z,50.08
2022-08-31T02:33:46.604Z,49.20
2022-08-31T02:38:45.600Z,48.71
2022-08-31T02:43:44.829Z,48.49
2022-08-31T02:48:46.402Z,49.32
2022-08-31T02:53:52.785Z,48.64
2022-08-31T02:58:55.059Z,49.13
2022-08-31T03:03:57.707Z,49.49
2022-08-31T03:08:57.500Z,50.11
2022-08-31T03:13:58.614Z,50.50
2022-08-31T03:19:02.371Z,51.59
2022-08-31T03:24:01.339Z,52.26
2022-08-31T03:29:00.272Z,52.13
2022-08-31T03:34:18.960Z,52.18
2022-08-31T03:39:22.214Z,52.44
2022-08-31T03:44:24.155Z,52.82
2022-08-31T03:49:25.733Z,53.45
2022-08-31T03:54:43.689Z,53.96
2022-08-31T03:59:43.565Z,53.21
2022-08-31T04:05:15.989Z,52.06
2022-08-31T04:10:33.947Z,51.98
2022-08-31T04:15:55.121Z,51.79
2022-08-31T04:21:16.894Z,51.98
2022-08-31T04:26:17.891Z,53.13
2022-08-31T04:31:17.976Z,53.58
2022-08-31T04:36:21.328Z,53.75
2022-08-31T04:41:34.022Z,54.38
2022-08-31T04:46:35.127Z,54.61
2022-08-31T04:51:38.846Z,55.54
2022-08-31T04:56:49.335Z,56.00
2022-08-31T05:02:06.851Z,55.24
2022-08-31T05:07:30.351Z,55.65
2022-08-31T05:12:31.809Z,55.22
2022-08-31T05:17:31.033Z,54.70
2022-08-31T05:22:35.743Z,55.66
2022-08-31T05:27:38.378Z,55.78
2022-08-31T05:32:40.547Z,56.35
2022-08-31T05:37:43.974Z,56.90
2022-08-31T05:42:46.885Z,56.62
2022-08-31T05:47:45.819Z,56.25
2022-08-31T05:52:47.053Z,55.80
2022-08-31T05:57:52.934Z,54.44
2022-08-31T06:02:54.244Z,54.41
2022-08-31T06:08:04.597Z,54.76
2022-08-31T06:13:05.588Z,54.34
2022-08-31T06:18:05.692Z,53.77
2022-08-31T06:23:08.687Z,52.63
2022-08-31T06:28:18.422Z,52.03
2022-08-31T06:33:18.418Z,51.18
2022-08-31T06:38:32.800Z,50.53
2022-08-31T06:44:08.134Z,50.71
2022-08-31T06:49:26.297Z,50.73
2022-08-31T06:54:39.920Z,50.27
2022-08-31T07:00:10.190Z,49.97
2022-08-31T07:05:57.205Z,49.17
2022-08-31T07:11:21.635Z,49.08
2022-08-31T07:16:25.623Z,49.08
2022-08-31T07:21:27.051Z,49.01
2022-08-31T07:26:36.400Z,48.36
2022-08-31T07:31:40.454Z,47.61
2022-08-31T07:37:00.058Z,47.30
2022-08-31T07:42:11.951Z,47.21
2022-08-31T07:47:14.763Z,47.12
2022-08-31T07:52:23.928Z,46.82
2022-08-31T07:57:36.338Z,46.35
2022-08-31T08:02:39.353Z,46.54
2022-08-31T08:07:40.619Z,45.73
2022-08-31T08:13:04.231Z,45.70
2022-08-31T08:18:43.372Z,44.93
2022-08-31T08:23:43.375Z,44.10
2022-08-31T08:29:07.779Z,43.79
2022-08-31T08:34:11.869Z,42.62
2022-08-31T08:39:13.308Z,41.76
2022-08-31T08:44:25.008Z,40.64
2022-08-31T08:49:35.426Z,40.50
2022-08-31T08:54:48.100Z,38.46
2022-08-31T08:59:49.583Z,36.06
2022-08-31T09:05:09.710Z,34.36
2022-08-31T09:10:42.289Z,33.38
2022-08-31T09:16:14.384Z,31.82
2022-08-31T09:21:22.244Z,30.58
2022-08-31T09:26:27.950Z,29.58
2022-08-31T09:31:41.419Z,27.92
2022-08-31T09:36:42.241Z,26.87
2022-08-31T09:41:42.219Z,26.00
2022-08-31T09:46:51.757Z,24.68
2022-08-31T09:51:50.876Z,23.64
2022-08-31T09:56:55.700Z,23.45
2022-08-31T10:02:01.196Z,22.74
2022-08-31T10:07:08.218Z,22.48
2022-08-31T10:12:10.887Z,21.59
2022-08-31T10:17:16.503Z,21.85
2022-08-31T10:22:31.557Z,21.19
2022-08-31T10:33:16.434Z,20.49
2022-08-31T10:38:26.328Z,20.57
2022-08-31T10:43:31.695Z,20.67
2022-08-31T10:48:34.202Z,19.68
2022-08-31T10:54:13.808Z,18.70
2022-08-31T10:59:39.755Z,18.60
2022-08-31T11:04:58.618Z,18.94
2022-08-31T11:10:13.056Z,18.80
2022-08-31T11:15:44.983Z,18.86
2022-08-31T11:21:05.099Z,19.34
2022-08-31T11:26:42.251Z,18.55
2022-08-31T11:31:42.492Z,18.20
2022-08-31T11:36:55.380Z,17.16
2022-08-31T11:41:55.590Z,16.91
2022-08-31T11:47:09.312Z,16.69
2022-08-31T11:52:38.777Z,15.90
2022-08-31T11:58:20.818Z,16.08
2022-08-31T12:03:44.558Z,15.67
2022-08-31T12:08:59.414Z,14.90
2022-08-31T12:14:09.902Z,15.77
2022-08-31T12:19:42.554Z,14.45
2022-08-31T12:25:01.240Z,14.98
2022-08-31T12:30:29.426Z,13.95
2022-08-31T12:35:31.714Z,14.02
2022-08-31T12:40:36.339Z,13.31
2022-08-31T12:46:19.595Z,13.18
2022-08-31T12:51:35.116Z,13.30
2022-08-31T12:56:42.191Z,13.14
2022-08-31T13:01:45.017Z,14.20
2022-08-31T13:06:45.389Z,14.88
2022-08-31T13:11:53.131Z,14.56
2022-08-31T13:16:54.945Z,15.12
2022-08-31T13:22:00.685Z,15.14
2022-08-31T13:27:16.239Z,14.75
2022-08-31T13:32:32.472Z,14.51
2022-08-31T13:37:37.462Z,14.38
2022-08-31T13:42:41.744Z,15.29
2022-08-31T13:47:57.687Z,15.33
2022-08-31T13:53:25.482Z,15.50
2022-08-31T13:58:34.048Z,15.62
2022-08-31T14:03:42.178Z,16.13
2022-08-31T14:08:41.261Z,15.40
2022-08-31T14:13:49.265Z,15.71
2022-08-31T14:18:50.786Z,15.66
2022-08-31T14:23:52.152Z,15.40
2022-08-31T14:28:55.568Z,15.31
2022-08-31T14:34:09.494Z,14.92
2022-08-31T14:39:08.900Z,15.95
2022-08-31T14:44:13.590Z,16.49
2022-08-31T14:49:16.468Z,15.76
2022-08-31T14:54:17.314Z,16.37
2022-08-31T14:59:21.637Z,16.90
2022-08-31T15:04:22.476Z,18.40
2022-08-31T15:09:22.562Z,18.79
2022-08-31T15:14:23.142Z,19.13
2022-08-31T15:19:23.233Z,20.01
2022-08-31T15:24:23.992Z,19.92
2022-08-31T15:29:24.917Z,20.00
2022-08-31T15:34:30.340Z,20.56
2022-08-31T15:39:32.008Z,21.65
2022-08-31T15:44:35.359Z,21.80
2022-08-31T15:49:35.163Z,21.33
2022-08-31T15:54:35.907Z,21.36
2022-08-31T15:59:37.106Z,21.62
2022-08-31T16:04:38.580Z,22.65
2022-08-31T16:09:41.071Z,22.98
2022-08-31T16:14:44.785Z,23.14
2022-08-31T16:19:43.725Z,23.94
2022-08-31T16:24:43.300Z,24.89
2022-08-31T16:29:43.382Z,25.45
2022-08-31T16:34:42.780Z,26.57
2022-08-31T16:39:44.439Z,27.73
2022-08-31T16:44:47.913Z,28.74
2022-08-31T16:49:49.021Z,28.80
2022-08-31T16:54:51.130Z,30.00
2022-08-31T16:59:54.932Z,30.99
2022-08-31T17:04:54.493Z,31.30
2022-08-31T17:09:57.765Z,31.71
2022-08-31T17:14:58.301Z,32.96
2022-08-31T17:19:58.802Z,32.90
2022-08-31T17:25:08.551Z,32.92
2022-08-31T17:30:10.708Z,33.50
2022-08-31T17:35:11.365Z,33.92
2022-08-31T17:40:14.323Z,33.99
2022-08-31T17:45:15.729Z,33.78
2022-08-31T17:50:17.784Z,33.61
2022-08-31T17:55:16.691Z,33.82
2022-08-31T18:00:17.893Z,33.56
2022-08-31T18:05:18.879Z,33.71
2022-08-31T18:10:18.773Z,33.51
2022-08-31T18:15:19.656Z,33.57
2022-08-31T18:20:19.231Z,33.64
2022-08-31T18:25:18.299Z,34.21
2022-08-31T18:30:19.412Z,34.17
2022-08-31T18:35:19.666Z,34.39
2022-08-31T18:40:35.807Z,34.60
2022-08-31T18:45:39.718Z,34.75
2022-08-31T18:50:39.210Z,35.13
2022-08-31T18:55:38.649Z,35.14
2022-08-31T19:00:41.734Z,36.17
2022-08-31T19:05:44.057Z,36.46
2022-08-31T19:10:49.174Z,36.56
2022-08-31T19:16:15.190Z,36.61
2022-08-31T19:21:26.006Z,36.59
2022-08-31T19:26:34.300Z,36.22
2022-08-31T19:31:35.413Z,36.69
2022-08-31T19:36:35.347Z,36.91
2022-08-31T19:41:35.271Z,37.26
2022-08-31T19:46:36.125Z,36.98
2022-08-31T19:51:36.108Z,38.02
2022-08-31T19:56:35.384Z,38.23
2022-08-31T20:01:36.705Z,39.15
2022-08-31T20:06:37.375Z,39.46
2022-08-31T20:11:40.089Z,40.18
2022-08-31T20:16:43.319Z,40.37
2022-08-31T20:21:44.714Z,40.47
2022-08-31T20:26:47.503Z,40.99
2022-08-31T20:31:56.190Z,41.48
2022-08-31T20:37:00.936Z,41.57
2022-08-31T20:42:01.663Z,42.54
2022-08-31T20:47:22.430Z,42.86
2022-08-31T20:52:22.985Z,42.31
2022-08-31T20:57:22.582Z,42.65
2022-08-31T21:02:23.287Z,42.89
2022-08-31T21:07:23.374Z,43.10
2022-08-31T21:12:23.011Z,43.46
2022-08-31T21:17:23.548Z,44.03
2022-08-31T21:22:22.405Z,44.43
2022-08-31T21:27:21.352Z,45.26
2022-08-31T21:32:20.264Z,45.35
2022-08-31T21:37:20.528Z,46.43
2022-08-31T21:42:19.943Z,46.70
2022-08-31T21:47:19.133Z,47.76
2022-08-31T21:52:18.680Z,48.33
2022-08-31T21:57:19.014Z,47.20
2022-08-31T22:02:18.479Z,48.89
2022-08-31T22:07:17.441Z,48.91
2022-08-31T22:12:18.305Z,48.56
2022-08-31T22:17:24.229Z,49.52
2022-08-31T22:22:32.115Z,49.55
2022-08-31T22:27:30.977Z,49.25
2022-08-31T22:32:31.562Z,50.21
2022-08-31T22:37:32.635Z,49.79
2022-08-31T22:42:31.891Z,49.92
2022-08-31T22:47:32.522Z,49.70
2022-08-31T22:52:34.148Z,49.65
2022-08-31T22:57:40.785Z,50.03
2022-08-31T23:03:06.290Z,49.72
2022-08-31T23:08:12.440Z,49.13
2022-08-31T23:13:11.706Z,49.17
2022-08-31T23:18:19.784Z,48.59
2022-08-31T23:23:20.380Z,48.70
2022-08-31T23:28:20.677Z,47.94
2022-08-31T23:33:21.425Z,47.96
2022-08-31T23:38:20.774Z,47.72
2022-08-31T23:43:22.792Z,47.92
2022-08-31T23:48:24.105Z,47.90
2022-08-31T23:53:31.157Z,48.08
2022-08-31T23:58:33.895Z,47.98
